sensor_id;sensor_type;location;lat;lon;timestamp;P1;durP1;ratioP1;P2;durP2;ratioP2
53245;SDS011;39569;51.090;-1.786;2023-05-10T00:00:09;32.40;;;22.40;;
53245;SDS011;39569;51.090;-1.786;2023-05-10T00:02:36;31.77;;;21.17;;
53245;SDS011;39569;51.090;-1.786;2023-05-10T00:05:04;33.08;;;21.50;;
53245;SDS011;39569;51.090;-1.786;2023-05-10T00:07:31;33.40;;;19.15;;
53245;SDS011;39569;51.090;-1.786;2023-05-10T00:09:58;33.00;;;19.70;;
53245;SDS011;39569;51.090;-1.786;2023-05-10T00:12:24;33.17;;;20.25;;
53245;SDS011;39569;51.090;-1.786;2023-05-10T00:14:51;42.35;;;20.30;;
53245;SDS011;39569;51.090;-1.786;2023-05-10T00:17:19;40.58;;;22.33;;
53245;SDS011;39569;51.090;-1.786;2023-05-10T00:19:46;38.78;;;21.27;;
53245;SDS011;39569;51.090;-1.786;2023-05-10T00:22:13;14.73;;;10.90;;
53245;SDS011;39569;51.090;-1.786;2023-05-10T00:24:40;33.20;;;19.67;;
53245;SDS011;39569;51.090;-1.786;2023-05-10T00:27:06;35.88;;;20.13;;
53245;SDS011;39569;51.090;-1.786;2023-05-10T00:29:33;27.55;;;19.80;;
53245;SDS011;39569;51.090;-1.786;2023-05-10T00:32:00;26.17;;;18.25;;
53245;SDS011;39569;51.090;-1.786;2023-05-10T00:34:29;21.95;;;17.58;;
53245;SDS011;39569;51.090;-1.786;2023-05-10T00:36:55;35.50;;;19.85;;
53245;SDS011;39569;51.090;-1.786;2023-05-10T00:39:22;27.13;;;17.88;;
53245;SDS011;39569;51.090;-1.786;2023-05-10T00:41:49;35.60;;;19.88;;
53245;SDS011;39569;51.090;-1.786;2023-05-10T00:44:16;39.58;;;21.25;;
53245;SDS011;39569;51.090;-1.786;2023-05-10T00:46:43;33.03;;;19.83;;
53245;SDS011;39569;51.090;-1.786;2023-05-10T00:49:10;50.83;;;20.73;;
53245;SDS011;39569;51.090;-1.786;2023-05-10T00:51:39;27.50;;;19.33;;
53245;SDS011;39569;51.090;-1.786;2023-05-10T00:54:07;25.48;;;19.92;;
53245;SDS011;39569;51.090;-1.786;2023-05-10T00:56:35;31.98;;;20.25;;
53245;SDS011;39569;51.090;-1.786;2023-05-10T00:59:02;27.45;;;20.08;;
53245;SDS011;39569;51.090;-1.786;2023-05-10T01:01:29;26.80;;;18.25;;
53245;SDS011;39569;51.090;-1.786;2023-05-10T01:03:57;31.45;;;20.10;;
53245;SDS011;39569;51.090;-1.786;2023-05-10T01:06:24;29.88;;;20.98;;
53245;SDS011;39569;51.090;-1.786;2023-05-10T01:08:52;27.65;;;20.42;;
53245;SDS011;39569;51.090;-1.786;2023-05-10T01:11:19;25.90;;;20.05;;
53245;SDS011;39569;51.090;-1.786;2023-05-10T01:13:47;36.38;;;20.17;;
53245;SDS011;39569;51.090;-1.786;2023-05-10T01:16:18;42.13;;;18.65;;
53245;SDS011;39569;51.090;-1.786;2023-05-10T01:18:45;30.85;;;20.13;;
53245;SDS011;39569;51.090;-1.786;2023-05-10T01:21:15;48.67;;;20.52;;
53245;SDS011;39569;51.090;-1.786;2023-05-10T01:33:23;33.92;;;19.40;;
53245;SDS011;39569;51.090;-1.786;2023-05-10T01:35:55;35.92;;;18.95;;
53245;SDS011;39569;51.090;-1.786;2023-05-10T01:41:01;27.38;;;17.17;;
53245;SDS011;39569;51.090;-1.786;2023-05-10T01:43:41;26.55;;;17.77;;
53245;SDS011;39569;51.090;-1.786;2023-05-10T01:46:16;31.58;;;18.85;;
53245;SDS011;39569;51.090;-1.786;2023-05-10T01:48:48;25.02;;;15.30;;
53245;SDS011;39569;51.090;-1.786;2023-05-10T01:51:21;23.25;;;14.98;;
53245;SDS011;39569;51.090;-1.786;2023-05-10T01:53:51;33.28;;;14.88;;
53245;SDS011;39569;51.090;-1.786;2023-05-10T01:56:26;26.58;;;14.20;;
53245;SDS011;39569;51.090;-1.786;2023-05-10T01:58:55;16.85;;;12.52;;
53245;SDS011;39569;51.090;-1.786;2023-05-10T02:01:25;22.83;;;13.07;;
53245;SDS011;39569;51.090;-1.786;2023-05-10T02:03:55;17.88;;;12.90;;
53245;SDS011;39569;51.090;-1.786;2023-05-10T02:06:24;24.27;;;11.82;;
53245;SDS011;39569;51.090;-1.786;2023-05-10T02:08:53;20.42;;;9.73;;
53245;SDS011;39569;51.090;-1.786;2023-05-10T02:11:21;23.45;;;10.90;;
53245;SDS011;39569;51.090;-1.786;2023-05-10T02:13:49;22.85;;;10.43;;
53245;SDS011;39569;51.090;-1.786;2023-05-10T02:16:17;19.52;;;10.13;;
53245;SDS011;39569;51.090;-1.786;2023-05-10T02:18:48;27.40;;;8.75;;
53245;SDS011;39569;51.090;-1.786;2023-05-10T02:21:18;19.83;;;9.07;;
53245;SDS011;39569;51.090;-1.786;2023-05-10T02:23:46;23.10;;;10.15;;
53245;SDS011;39569;51.090;-1.786;2023-05-10T02:26:16;23.70;;;8.90;;
53245;SDS011;39569;51.090;-1.786;2023-05-10T02:28:45;37.30;;;9.23;;
53245;SDS011;39569;51.090;-1.786;2023-05-10T02:31:12;18.10;;;9.27;;
53245;SDS011;39569;51.090;-1.786;2023-05-10T02:33:41;29.88;;;9.18;;
53245;SDS011;39569;51.090;-1.786;2023-05-10T02:36:09;44.65;;;8.73;;
53245;SDS011;39569;51.090;-1.786;2023-05-10T02:38:40;40.25;;;8.80;;
53245;SDS011;39569;51.090;-1.786;2023-05-10T02:41:07;31.63;;;8.80;;
53245;SDS011;39569;51.090;-1.786;2023-05-10T02:43:36;27.60;;;9.38;;
53245;SDS011;39569;51.090;-1.786;2023-05-10T02:46:05;24.20;;;9.05;;
53245;SDS011;39569;51.090;-1.786;2023-05-10T02:48:32;24.77;;;8.27;;
53245;SDS011;39569;51.090;-1.786;2023-05-10T02:51:00;17.08;;;8.50;;
53245;SDS011;39569;51.090;-1.786;2023-05-10T02:53:33;27.23;;;9.13;;
53245;SDS011;39569;51.090;-1.786;2023-05-10T02:56:04;21.02;;;7.25;;
53245;SDS011;39569;51.090;-1.786;2023-05-10T02:58:33;22.83;;;7.95;;
53245;SDS011;39569;51.090;-1.786;2023-05-10T03:01:00;27.25;;;7.40;;
53245;SDS011;39569;51.090;-1.786;2023-05-10T03:03:27;11.02;;;3.15;;
53245;SDS011;39569;51.090;-1.786;2023-05-10T03:05:54;21.08;;;8.85;;
53245;SDS011;39569;51.090;-1.786;2023-05-10T03:08:21;27.92;;;9.52;;
53245;SDS011;39569;51.090;-1.786;2023-05-10T03:10:52;24.75;;;8.93;;
53245;SDS011;39569;51.090;-1.786;2023-05-10T03:13:29;16.35;;;6.82;;
53245;SDS011;39569;51.090;-1.786;2023-05-10T03:18:33;30.45;;;8.93;;
53245;SDS011;39569;51.090;-1.786;2023-05-10T03:21:07;23.35;;;8.52;;
53245;SDS011;39569;51.090;-1.786;2023-05-10T03:23:39;35.78;;;8.52;;
53245;SDS011;39569;51.090;-1.786;2023-05-10T03:26:09;16.08;;;6.57;;
53245;SDS011;39569;51.090;-1.786;2023-05-10T03:28:39;25.55;;;8.93;;
53245;SDS011;39569;51.090;-1.786;2023-05-10T03:31:08;22.05;;;7.88;;
53245;SDS011;39569;51.090;-1.786;2023-05-10T03:33:35;35.70;;;9.45;;
53245;SDS011;39569;51.090;-1.786;2023-05-10T03:36:11;23.02;;;8.88;;
53245;SDS011;39569;51.090;-1.786;2023-05-10T03:38:38;36.00;;;8.75;;
53245;SDS011;39569;51.090;-1.786;2023-05-10T03:41:05;27.08;;;8.57;;
53245;SDS011;39569;51.090;-1.786;2023-05-10T03:43:32;31.33;;;8.23;;
53245;SDS011;39569;51.090;-1.786;2023-05-10T03:46:02;14.10;;;6.00;;
53245;SDS011;39569;51.090;-1.786;2023-05-10T03:48:29;45.05;;;9.90;;
53245;SDS011;39569;51.090;-1.786;2023-05-10T03:50:56;32.35;;;8.98;;
53245;SDS011;39569;51.090;-1.786;2023-05-10T03:53:23;24.98;;;7.82;;
53245;SDS011;39569;51.090;-1.786;2023-05-10T03:55:50;25.02;;;7.53;;
53245;SDS011;39569;51.090;-1.786;2023-05-10T03:58:17;21.20;;;7.75;;
53245;SDS011;39569;51.090;-1.786;2023-05-10T04:00:44;24.92;;;8.05;;
53245;SDS011;39569;51.090;-1.786;2023-05-10T04:03:12;27.92;;;9.98;;
53245;SDS011;39569;51.090;-1.786;2023-05-10T04:05:39;27.35;;;8.30;;
53245;SDS011;39569;51.090;-1.786;2023-05-10T04:08:06;24.20;;;8.25;;
53245;SDS011;39569;51.090;-1.786;2023-05-10T04:10:33;32.47;;;7.75;;
53245;SDS011;39569;51.090;-1.786;2023-05-10T04:13:00;34.05;;;9.23;;
53245;SDS011;39569;51.090;-1.786;2023-05-10T04:15:26;15.60;;;6.90;;
53245;SDS011;39569;51.090;-1.786;2023-05-10T04:17:53;31.90;;;8.25;;
53245;SDS011;39569;51.090;-1.786;2023-05-10T04:20:21;16.30;;;6.65;;
53245;SDS011;39569;51.090;-1.786;2023-05-10T04:22:48;24.23;;;8.98;;
53245;SDS011;39569;51.090;-1.786;2023-05-10T04:25:15;28.00;;;8.07;;
53245;SDS011;39569;51.090;-1.786;2023-05-10T04:27:42;25.02;;;8.98;;
53245;SDS011;39569;51.090;-1.786;2023-05-10T04:30:09;27.80;;;8.98;;
53245;SDS011;39569;51.090;-1.786;2023-05-10T04:32:36;21.80;;;9.38;;
53245;SDS011;39569;51.090;-1.786;2023-05-10T04:35:03;16.52;;;5.18;;
53245;SDS011;39569;51.090;-1.786;2023-05-10T04:37:31;28.35;;;9.43;;
53245;SDS011;39569;51.090;-1.786;2023-05-10T04:39:58;26.17;;;9.98;;
53245;SDS011;39569;51.090;-1.786;2023-05-10T04:42:25;43.35;;;11.23;;
53245;SDS011;39569;51.090;-1.786;2023-05-10T04:44:52;24.27;;;8.98;;
53245;SDS011;39569;51.090;-1.786;2023-05-10T04:47:19;38.55;;;6.80;;
53245;SDS011;39569;51.090;-1.786;2023-05-10T04:49:46;35.00;;;10.77;;
53245;SDS011;39569;51.090;-1.786;2023-05-10T04:52:12;49.30;;;12.95;;
53245;SDS011;39569;51.090;-1.786;2023-05-10T04:54:42;36.75;;;11.07;;
53245;SDS011;39569;51.090;-1.786;2023-05-10T04:57:09;37.25;;;11.57;;
53245;SDS011;39569;51.090;-1.786;2023-05-10T04:59:36;36.17;;;10.98;;
53245;SDS011;39569;51.090;-1.786;2023-05-10T05:02:02;26.52;;;10.07;;
53245;SDS011;39569;51.090;-1.786;2023-05-10T05:04:29;23.30;;;9.90;;
53245;SDS011;39569;51.090;-1.786;2023-05-10T05:06:56;16.80;;;8.35;;
53245;SDS011;39569;51.090;-1.786;2023-05-10T05:09:23;36.53;;;9.80;;
53245;SDS011;39569;51.090;-1.786;2023-05-10T05:11:51;28.63;;;8.32;;
53245;SDS011;39569;51.090;-1.786;2023-05-10T05:14:18;21.50;;;7.97;;
53245;SDS011;39569;51.090;-1.786;2023-05-10T05:16:45;16.30;;;8.38;;
53245;SDS011;39569;51.090;-1.786;2023-05-10T05:19:12;36.35;;;10.20;;
53245;SDS011;39569;51.090;-1.786;2023-05-10T05:21:39;15.40;;;8.73;;
53245;SDS011;39569;51.090;-1.786;2023-05-10T05:24:06;28.45;;;10.43;;
53245;SDS011;39569;51.090;-1.786;2023-05-10T05:26:33;33.55;;;12.50;;
53245;SDS011;39569;51.090;-1.786;2023-05-10T05:29:01;33.28;;;10.38;;
53245;SDS011;39569;51.090;-1.786;2023-05-10T05:31:28;36.75;;;14.20;;
53245;SDS011;39569;51.090;-1.786;2023-05-10T05:33:55;34.60;;;10.48;;
53245;SDS011;39569;51.090;-1.786;2023-05-10T05:36:22;39.28;;;12.02;;
53245;SDS011;39569;51.090;-1.786;2023-05-10T05:38:49;27.98;;;11.82;;
53245;SDS011;39569;51.090;-1.786;2023-05-10T05:41:16;35.00;;;12.52;;
53245;SDS011;39569;51.090;-1.786;2023-05-10T05:43:43;47.85;;;11.63;;
53245;SDS011;39569;51.090;-1.786;2023-05-10T05:46:11;32.75;;;12.60;;
53245;SDS011;39569;51.090;-1.786;2023-05-10T05:48:37;39.88;;;13.35;;
53245;SDS011;39569;51.090;-1.786;2023-05-10T05:51:04;38.58;;;13.10;;
53245;SDS011;39569;51.090;-1.786;2023-05-10T05:53:31;32.22;;;12.27;;
53245;SDS011;39569;51.090;-1.786;2023-05-10T05:55:58;37.65;;;14.15;;
53245;SDS011;39569;51.090;-1.786;2023-05-10T05:58:25;38.85;;;14.07;;
53245;SDS011;39569;51.090;-1.786;2023-05-10T06:00:52;26.05;;;13.38;;
53245;SDS011;39569;51.090;-1.786;2023-05-10T06:03:20;34.97;;;14.18;;
53245;SDS011;39569;51.090;-1.786;2023-05-10T06:05:47;51.92;;;15.32;;
53245;SDS011;39569;51.090;-1.786;2023-05-10T06:08:14;30.60;;;13.68;;
53245;SDS011;39569;51.090;-1.786;2023-05-10T06:10:40;30.80;;;12.38;;
53245;SDS011;39569;51.090;-1.786;2023-05-10T06:13:07;32.58;;;12.73;;
53245;SDS011;39569;51.090;-1.786;2023-05-10T06:15:34;27.88;;;13.05;;
53245;SDS011;39569;51.090;-1.786;2023-05-10T06:18:01;29.00;;;12.07;;
53245;SDS011;39569;51.090;-1.786;2023-05-10T06:20:29;24.60;;;11.05;;
53245;SDS011;39569;51.090;-1.786;2023-05-10T06:22:57;36.78;;;12.55;;
53245;SDS011;39569;51.090;-1.786;2023-05-10T06:25:23;25.52;;;10.55;;
53245;SDS011;39569;51.090;-1.786;2023-05-10T06:27:50;32.45;;;9.68;;
53245;SDS011;39569;51.090;-1.786;2023-05-10T06:30:22;25.90;;;11.38;;
53245;SDS011;39569;51.090;-1.786;2023-05-10T06:32:52;19.60;;;10.30;;
53245;SDS011;39569;51.090;-1.786;2023-05-10T06:35:19;15.43;;;8.48;;
53245;SDS011;39569;51.090;-1.786;2023-05-10T06:37:48;29.13;;;9.00;;
53245;SDS011;39569;51.090;-1.786;2023-05-10T06:40:15;25.45;;;9.25;;
53245;SDS011;39569;51.090;-1.786;2023-05-10T06:42:42;20.13;;;7.95;;
53245;SDS011;39569;51.090;-1.786;2023-05-10T06:45:10;27.58;;;8.52;;
53245;SDS011;39569;51.090;-1.786;2023-05-10T06:47:37;21.73;;;7.82;;
53245;SDS011;39569;51.090;-1.786;2023-05-10T06:50:04;35.78;;;8.73;;
53245;SDS011;39569;51.090;-1.786;2023-05-10T06:52:31;21.73;;;8.18;;
53245;SDS011;39569;51.090;-1.786;2023-05-10T06:54:59;16.55;;;6.75;;
53245;SDS011;39569;51.090;-1.786;2023-05-10T06:57:26;28.35;;;7.97;;
53245;SDS011;39569;51.090;-1.786;2023-05-10T06:59:53;24.63;;;8.32;;
53245;SDS011;39569;51.090;-1.786;2023-05-10T07:02:21;24.10;;;7.78;;
53245;SDS011;39569;51.090;-1.786;2023-05-10T07:04:48;18.17;;;6.90;;
53245;SDS011;39569;51.090;-1.786;2023-05-10T07:07:15;18.88;;;6.95;;
53245;SDS011;39569;51.090;-1.786;2023-05-10T07:09:41;24.83;;;8.38;;
53245;SDS011;39569;51.090;-1.786;2023-05-10T07:12:09;19.58;;;7.68;;
53245;SDS011;39569;51.090;-1.786;2023-05-10T07:14:36;24.77;;;7.05;;
53245;SDS011;39569;51.090;-1.786;2023-05-10T07:17:03;16.10;;;7.03;;
53245;SDS011;39569;51.090;-1.786;2023-05-10T07:19:30;16.92;;;7.72;;
53245;SDS011;39569;51.090;-1.786;2023-05-10T07:21:57;21.77;;;6.25;;
53245;SDS011;39569;51.090;-1.786;2023-05-10T07:24:24;17.17;;;5.03;;
53245;SDS011;39569;51.090;-1.786;2023-05-10T07:26:51;13.52;;;5.95;;
53245;SDS011;39569;51.090;-1.786;2023-05-10T07:29:19;16.63;;;5.38;;
53245;SDS011;39569;51.090;-1.786;2023-05-10T07:31:46;13.38;;;5.18;;
53245;SDS011;39569;51.090;-1.786;2023-05-10T07:34:13;19.05;;;7.85;;
53245;SDS011;39569;51.090;-1.786;2023-05-10T07:36:39;27.80;;;6.22;;
53245;SDS011;39569;51.090;-1.786;2023-05-10T07:39:07;18.77;;;6.43;;
53245;SDS011;39569;51.090;-1.786;2023-05-10T07:41:33;14.68;;;5.35;;
53245;SDS011;39569;51.090;-1.786;2023-05-10T07:44:02;23.55;;;5.97;;
53245;SDS011;39569;51.090;-1.786;2023-05-10T07:46:30;14.50;;;5.88;;
53245;SDS011;39569;51.090;-1.786;2023-05-10T07:48:57;24.67;;;5.88;;
53245;SDS011;39569;51.090;-1.786;2023-05-10T07:51:24;11.90;;;4.95;;
53245;SDS011;39569;51.090;-1.786;2023-05-10T07:53:51;14.55;;;5.15;;
53245;SDS011;39569;51.090;-1.786;2023-05-10T07:56:22;24.90;;;6.63;;
53245;SDS011;39569;51.090;-1.786;2023-05-10T07:58:52;16.35;;;5.45;;
53245;SDS011;39569;51.090;-1.786;2023-05-10T08:01:19;15.55;;;6.57;;
53245;SDS011;39569;51.090;-1.786;2023-05-10T08:03:47;22.98;;;6.72;;
53245;SDS011;39569;51.090;-1.786;2023-05-10T08:06:16;13.85;;;6.15;;
53245;SDS011;39569;51.090;-1.786;2023-05-10T08:08:43;15.10;;;6.05;;
53245;SDS011;39569;51.090;-1.786;2023-05-10T08:11:14;13.43;;;4.57;;
53245;SDS011;39569;51.090;-1.786;2023-05-10T08:13:41;11.80;;;3.97;;
53245;SDS011;39569;51.090;-1.786;2023-05-10T08:16:07;14.35;;;5.07;;
53245;SDS011;39569;51.090;-1.786;2023-05-10T08:18:34;23.95;;;5.55;;
53245;SDS011;39569;51.090;-1.786;2023-05-10T08:21:02;10.32;;;3.78;;
53245;SDS011;39569;51.090;-1.786;2023-05-10T08:23:29;13.75;;;5.35;;
53245;SDS011;39569;51.090;-1.786;2023-05-10T08:25:56;8.75;;;4.65;;
53245;SDS011;39569;51.090;-1.786;2023-05-10T08:28:23;8.10;;;4.53;;
53245;SDS011;39569;51.090;-1.786;2023-05-10T08:30:49;16.75;;;5.22;;
53245;SDS011;39569;51.090;-1.786;2023-05-10T08:33:17;21.33;;;6.03;;
53245;SDS011;39569;51.090;-1.786;2023-05-10T08:35:44;9.20;;;4.80;;
53245;SDS011;39569;51.090;-1.786;2023-05-10T08:38:12;24.55;;;4.90;;
53245;SDS011;39569;51.090;-1.786;2023-05-10T08:40:39;18.10;;;4.78;;
53245;SDS011;39569;51.090;-1.786;2023-05-10T08:43:08;14.27;;;4.95;;
53245;SDS011;39569;51.090;-1.786;2023-05-10T08:45:37;22.58;;;5.50;;
53245;SDS011;39569;51.090;-1.786;2023-05-10T08:48:06;19.55;;;6.97;;
53245;SDS011;39569;51.090;-1.786;2023-05-10T08:50:33;12.18;;;5.50;;
53245;SDS011;39569;51.090;-1.786;2023-05-10T08:53:03;20.67;;;6.40;;
53245;SDS011;39569;51.090;-1.786;2023-05-10T08:55:33;14.32;;;5.28;;
53245;SDS011;39569;51.090;-1.786;2023-05-10T08:58:02;16.58;;;4.72;;
53245;SDS011;39569;51.090;-1.786;2023-05-10T09:00:29;11.48;;;4.53;;
53245;SDS011;39569;51.090;-1.786;2023-05-10T09:02:57;14.00;;;5.75;;
53245;SDS011;39569;51.090;-1.786;2023-05-10T09:05:24;14.48;;;3.72;;
53245;SDS011;39569;51.090;-1.786;2023-05-10T09:07:51;14.82;;;3.50;;
53245;SDS011;39569;51.090;-1.786;2023-05-10T09:10:17;12.05;;;4.85;;
53245;SDS011;39569;51.090;-1.786;2023-05-10T09:12:46;12.07;;;3.72;;
53245;SDS011;39569;51.090;-1.786;2023-05-10T09:15:14;13.68;;;4.18;;
53245;SDS011;39569;51.090;-1.786;2023-05-10T09:17:44;12.77;;;4.22;;
53245;SDS011;39569;51.090;-1.786;2023-05-10T09:20:11;8.93;;;3.75;;
53245;SDS011;39569;51.090;-1.786;2023-05-10T09:22:38;16.35;;;5.18;;
53245;SDS011;39569;51.090;-1.786;2023-05-10T09:25:06;17.73;;;5.68;;
53245;SDS011;39569;51.090;-1.786;2023-05-10T09:27:34;13.00;;;4.18;;
53245;SDS011;39569;51.090;-1.786;2023-05-10T09:30:03;12.13;;;4.85;;
53245;SDS011;39569;51.090;-1.786;2023-05-10T09:32:37;6.20;;;3.17;;
53245;SDS011;39569;51.090;-1.786;2023-05-10T09:35:08;9.25;;;3.58;;
53245;SDS011;39569;51.090;-1.786;2023-05-10T09:37:35;7.70;;;4.35;;
53245;SDS011;39569;51.090;-1.786;2023-05-10T09:40:05;6.35;;;3.92;;
53245;SDS011;39569;51.090;-1.786;2023-05-10T09:42:33;11.07;;;3.90;;
53245;SDS011;39569;51.090;-1.786;2023-05-10T09:45:03;10.50;;;4.35;;
53245;SDS011;39569;51.090;-1.786;2023-05-10T09:47:31;12.10;;;4.07;;
53245;SDS011;39569;51.090;-1.786;2023-05-10T09:49:59;13.18;;;4.43;;
53245;SDS011;39569;51.090;-1.786;2023-05-10T09:52:29;7.32;;;4.35;;
53245;SDS011;39569;51.090;-1.786;2023-05-10T09:54:56;13.35;;;4.05;;
53245;SDS011;39569;51.090;-1.786;2023-05-10T09:57:23;7.28;;;3.38;;
53245;SDS011;39569;51.090;-1.786;2023-05-10T09:59:50;14.55;;;3.53;;
53245;SDS011;39569;51.090;-1.786;2023-05-10T10:02:20;10.52;;;3.80;;
53245;SDS011;39569;51.090;-1.786;2023-05-10T10:04:49;10.50;;;4.47;;
53245;SDS011;39569;51.090;-1.786;2023-05-10T10:07:17;9.65;;;3.95;;
53245;SDS011;39569;51.090;-1.786;2023-05-10T10:09:49;9.55;;;3.22;;
53245;SDS011;39569;51.090;-1.786;2023-05-10T10:12:16;3.95;;;2.60;;
53245;SDS011;39569;51.090;-1.786;2023-05-10T10:14:44;6.03;;;2.50;;
53245;SDS011;39569;51.090;-1.786;2023-05-10T10:17:12;8.07;;;3.05;;
53245;SDS011;39569;51.090;-1.786;2023-05-10T10:19:40;17.05;;;3.63;;
53245;SDS011;39569;51.090;-1.786;2023-05-10T10:22:08;7.03;;;3.17;;
53245;SDS011;39569;51.090;-1.786;2023-05-10T10:24:36;14.70;;;3.33;;
53245;SDS011;39569;51.090;-1.786;2023-05-10T10:27:09;8.20;;;3.25;;
53245;SDS011;39569;51.090;-1.786;2023-05-10T10:29:46;8.55;;;3.63;;
53245;SDS011;39569;51.090;-1.786;2023-05-10T10:34:49;8.45;;;3.60;;
53245;SDS011;39569;51.090;-1.786;2023-05-10T10:37:17;13.57;;;3.80;;
53245;SDS011;39569;51.090;-1.786;2023-05-10T10:39:43;14.05;;;3.85;;
53245;SDS011;39569;51.090;-1.786;2023-05-10T10:42:10;10.23;;;3.60;;
53245;SDS011;39569;51.090;-1.786;2023-05-10T10:44:37;12.45;;;3.72;;
53245;SDS011;39569;51.090;-1.786;2023-05-10T10:47:07;21.90;;;5.22;;
53245;SDS011;39569;51.090;-1.786;2023-05-10T10:49:51;19.02;;;4.78;;
53245;SDS011;39569;51.090;-1.786;2023-05-10T10:52:23;11.40;;;4.25;;
53245;SDS011;39569;51.090;-1.786;2023-05-10T10:54:56;10.15;;;4.15;;
53245;SDS011;39569;51.090;-1.786;2023-05-10T10:57:25;13.30;;;5.05;;
53245;SDS011;39569;51.090;-1.786;2023-05-10T10:59:54;6.80;;;3.75;;
53245;SDS011;39569;51.090;-1.786;2023-05-10T11:02:45;11.43;;;5.38;;
53245;SDS011;39569;51.090;-1.786;2023-05-10T11:05:25;14.90;;;4.32;;
53245;SDS011;39569;51.090;-1.786;2023-05-10T11:08:00;8.55;;;4.15;;
53245;SDS011;39569;51.090;-1.786;2023-05-10T11:10:33;9.00;;;4.07;;
53245;SDS011;39569;51.090;-1.786;2023-05-10T11:13:00;10.65;;;4.35;;
53245;SDS011;39569;51.090;-1.786;2023-05-10T11:15:30;12.15;;;3.50;;
53245;SDS011;39569;51.090;-1.786;2023-05-10T11:17:58;6.18;;;2.33;;
53245;SDS011;39569;51.090;-1.786;2023-05-10T11:20:28;6.30;;;3.22;;
53245;SDS011;39569;51.090;-1.786;2023-05-10T11:22:59;4.18;;;2.03;;
53245;SDS011;39569;51.090;-1.786;2023-05-10T11:25:41;8.40;;;2.42;;
53245;SDS011;39569;51.090;-1.786;2023-05-10T11:28:09;7.65;;;2.88;;
53245;SDS011;39569;51.090;-1.786;2023-05-10T11:30:36;4.10;;;2.33;;
53245;SDS011;39569;51.090;-1.786;2023-05-10T11:33:04;7.63;;;3.17;;
53245;SDS011;39569;51.090;-1.786;2023-05-10T11:35:33;12.15;;;3.63;;
53245;SDS011;39569;51.090;-1.786;2023-05-10T11:38:04;10.52;;;3.95;;
53245;SDS011;39569;51.090;-1.786;2023-05-10T11:40:32;9.98;;;4.07;;
53245;SDS011;39569;51.090;-1.786;2023-05-10T11:42:59;9.35;;;2.80;;
53245;SDS011;39569;51.090;-1.786;2023-05-10T11:45:25;9.30;;;3.10;;
53245;SDS011;39569;51.090;-1.786;2023-05-10T11:47:54;11.60;;;3.65;;
53245;SDS011;39569;51.090;-1.786;2023-05-10T11:50:21;17.55;;;4.63;;
53245;SDS011;39569;51.090;-1.786;2023-05-10T11:52:51;9.82;;;3.42;;
53245;SDS011;39569;51.090;-1.786;2023-05-10T11:55:18;7.53;;;2.92;;
53245;SDS011;39569;51.090;-1.786;2023-05-10T11:57:45;5.60;;;3.03;;
53245;SDS011;39569;51.090;-1.786;2023-05-10T12:00:12;4.45;;;2.63;;
53245;SDS011;39569;51.090;-1.786;2023-05-10T12:02:40;4.93;;;2.67;;
53245;SDS011;39569;51.090;-1.786;2023-05-10T12:05:07;16.08;;;4.30;;
53245;SDS011;39569;51.090;-1.786;2023-05-10T12:07:35;9.75;;;3.63;;
53245;SDS011;39569;51.090;-1.786;2023-05-10T12:10:03;9.63;;;3.83;;
53245;SDS011;39569;51.090;-1.786;2023-05-10T12:12:35;11.57;;;3.85;;
53245;SDS011;39569;51.090;-1.786;2023-05-10T12:15:03;5.32;;;3.03;;
53245;SDS011;39569;51.090;-1.786;2023-05-10T12:17:31;10.30;;;3.67;;
53245;SDS011;39569;51.090;-1.786;2023-05-10T12:19:58;9.93;;;4.25;;
53245;SDS011;39569;51.090;-1.786;2023-05-10T12:22:38;16.02;;;3.92;;
53245;SDS011;39569;51.090;-1.786;2023-05-10T12:25:07;13.82;;;4.50;;
53245;SDS011;39569;51.090;-1.786;2023-05-10T12:27:35;9.15;;;4.47;;
53245;SDS011;39569;51.090;-1.786;2023-05-10T12:30:01;4.65;;;2.58;;
53245;SDS011;39569;51.090;-1.786;2023-05-10T12:32:39;13.30;;;4.63;;
53245;SDS011;39569;51.090;-1.786;2023-05-10T12:35:06;11.35;;;3.65;;
53245;SDS011;39569;51.090;-1.786;2023-05-10T12:37:34;10.30;;;4.03;;
53245;SDS011;39569;51.090;-1.786;2023-05-10T12:40:07;10.60;;;3.50;;
53245;SDS011;39569;51.090;-1.786;2023-05-10T12:42:35;6.57;;;2.65;;
53245;SDS011;39569;51.090;-1.786;2023-05-10T12:45:03;6.05;;;2.85;;
53245;SDS011;39569;51.090;-1.786;2023-05-10T12:47:31;10.18;;;3.47;;
53245;SDS011;39569;51.090;-1.786;2023-05-10T12:49:59;17.10;;;4.45;;
53245;SDS011;39569;51.090;-1.786;2023-05-10T12:52:27;15.77;;;5.55;;
53245;SDS011;39569;51.090;-1.786;2023-05-10T12:54:54;13.45;;;4.68;;
53245;SDS011;39569;51.090;-1.786;2023-05-10T12:57:22;9.90;;;4.70;;
53245;SDS011;39569;51.090;-1.786;2023-05-10T12:59:49;12.02;;;4.70;;
53245;SDS011;39569;51.090;-1.786;2023-05-10T13:02:16;14.27;;;4.82;;
53245;SDS011;39569;51.090;-1.786;2023-05-10T13:04:44;16.38;;;5.00;;
53245;SDS011;39569;51.090;-1.786;2023-05-10T13:07:11;11.18;;;4.05;;
53245;SDS011;39569;51.090;-1.786;2023-05-10T13:09:38;8.13;;;3.50;;
53245;SDS011;39569;51.090;-1.786;2023-05-10T13:12:05;8.35;;;3.80;;
53245;SDS011;39569;51.090;-1.786;2023-05-10T13:14:34;9.15;;;3.83;;
53245;SDS011;39569;51.090;-1.786;2023-05-10T13:17:00;17.67;;;5.13;;
53245;SDS011;39569;51.090;-1.786;2023-05-10T13:19:27;5.28;;;2.53;;
53245;SDS011;39569;51.090;-1.786;2023-05-10T13:21:54;8.70;;;3.13;;
53245;SDS011;39569;51.090;-1.786;2023-05-10T13:24:21;5.85;;;3.47;;
53245;SDS011;39569;51.090;-1.786;2023-05-10T13:26:48;18.10;;;2.97;;
53245;SDS011;39569;51.090;-1.786;2023-05-10T13:29:14;4.25;;;2.33;;
53245;SDS011;39569;51.090;-1.786;2023-05-10T13:31:44;14.57;;;2.92;;
53245;SDS011;39569;51.090;-1.786;2023-05-10T13:34:11;5.68;;;2.42;;
53245;SDS011;39569;51.090;-1.786;2023-05-10T13:36:37;6.25;;;3.05;;
53245;SDS011;39569;51.090;-1.786;2023-05-10T13:39:04;14.52;;;3.97;;
53245;SDS011;39569;51.090;-1.786;2023-05-10T13:41:31;11.63;;;3.90;;
53245;SDS011;39569;51.090;-1.786;2023-05-10T13:43:59;8.35;;;3.63;;
53245;SDS011;39569;51.090;-1.786;2023-05-10T13:46:25;9.25;;;2.78;;
53245;SDS011;39569;51.090;-1.786;2023-05-10T13:48:54;5.60;;;3.30;;
53245;SDS011;39569;51.090;-1.786;2023-05-10T13:51:21;11.55;;;3.80;;
53245;SDS011;39569;51.090;-1.786;2023-05-10T13:53:48;12.18;;;2.95;;
53245;SDS011;39569;51.090;-1.786;2023-05-10T13:56:15;4.85;;;3.05;;
53245;SDS011;39569;51.090;-1.786;2023-05-10T13:58:42;7.38;;;2.47;;
53245;SDS011;39569;51.090;-1.786;2023-05-10T14:01:09;4.13;;;2.83;;
53245;SDS011;39569;51.090;-1.786;2023-05-10T14:03:37;5.75;;;2.50;;
53245;SDS011;39569;51.090;-1.786;2023-05-10T14:06:05;3.60;;;1.83;;
53245;SDS011;39569;51.090;-1.786;2023-05-10T14:08:32;5.07;;;2.05;;
53245;SDS011;39569;51.090;-1.786;2023-05-10T14:10:59;9.13;;;3.15;;
53245;SDS011;39569;51.090;-1.786;2023-05-10T14:13:26;3.00;;;2.17;;
53245;SDS011;39569;51.090;-1.786;2023-05-10T14:15:53;5.93;;;2.40;;
53245;SDS011;39569;51.090;-1.786;2023-05-10T14:18:20;4.85;;;1.67;;
53245;SDS011;39569;51.090;-1.786;2023-05-10T14:20:47;3.72;;;1.35;;
53245;SDS011;39569;51.090;-1.786;2023-05-10T14:23:15;4.68;;;2.13;;
53245;SDS011;39569;51.090;-1.786;2023-05-10T14:25:42;5.15;;;1.75;;
53245;SDS011;39569;51.090;-1.786;2023-05-10T14:28:09;4.13;;;1.77;;
53245;SDS011;39569;51.090;-1.786;2023-05-10T14:30:36;4.63;;;2.05;;
53245;SDS011;39569;51.090;-1.786;2023-05-10T14:33:03;6.50;;;1.85;;
53245;SDS011;39569;51.090;-1.786;2023-05-10T14:35:30;5.50;;;1.27;;
53245;SDS011;39569;51.090;-1.786;2023-05-10T14:37:57;8.25;;;1.40;;
53245;SDS011;39569;51.090;-1.786;2023-05-10T14:40:25;1.90;;;1.55;;
53245;SDS011;39569;51.090;-1.786;2023-05-10T14:42:52;9.88;;;1.48;;